createdAt,value
2018-06-01T00:02:10.141Z,20.80
2018-06-01T00:04:37.565Z,20.80
2018-06-01T00:07:05.687Z,20.70
2018-06-01T00:09:33.108Z,20.60
2018-06-01T00:12:01.312Z,20.60
2018-06-01T00:14:28.747Z,20.50
2018-06-01T00:16:57.051Z,20.60
2018-06-01T00:19:24.470Z,20.60
2018-06-01T00:21:52.748Z,20.60
2018-06-01T00:24:20.960Z,20.50
2018-06-01T00:26:48.403Z,20.40
2018-06-01T00:29:15.836Z,20.40
2018-06-01T00:31:44.072Z,20.30
2018-06-01T00:34:11.509Z,20.30
2018-06-01T00:36:38.952Z,20.30
2018-06-01T00:39:06.398Z,20.20
2018-06-01T00:41:33.824Z,20.20
2018-06-01T00:44:02.041Z,20.10
2018-06-01T00:46:29.485Z,20.10
2018-06-01T00:48:56.917Z,20.10
2018-06-01T00:51:24.345Z,20.00
2018-06-01T00:53:51.897Z,20.00
2018-06-01T00:56:19.338Z,20.00
2018-06-01T00:58:46.783Z,20.10
2018-06-01T01:01:14.209Z,20.00
2018-06-01T01:06:15.577Z,19.80
2018-06-01T01:08:43.017Z,19.80
2018-06-01T01:11:11.211Z,19.80
2018-06-01T01:13:38.645Z,19.80
2018-06-01T01:16:06.888Z,19.80
2018-06-01T01:18:34.344Z,19.80
2018-06-01T01:21:01.773Z,19.80
2018-06-01T01:23:29.214Z,19.70
2018-06-01T01:25:56.636Z,19.70
2018-06-01T01:28:24.853Z,19.70
2018-06-01T01:30:52.413Z,19.60
2018-06-01T01:33:19.829Z,19.70
2018-06-01T01:35:48.042Z,19.60
2018-06-01T01:38:15.483Z,19.50
2018-06-01T01:40:47.853Z,19.50
2018-06-01T01:43:15.326Z,19.50
2018-06-01T01:45:42.751Z,19.50
2018-06-01T01:48:10.959Z,19.50
2018-06-01T01:50:38.397Z,19.40
2018-06-01T01:53:05.851Z,19.50
2018-06-01T01:55:34.049Z,19.50
2018-06-01T01:58:01.489Z,19.40
2018-06-01T02:00:28.924Z,19.50
2018-06-01T02:02:57.125Z,19.40
2018-06-01T02:05:24.571Z,19.30
2018-06-01T02:07:51.997Z,19.30
2018-06-01T02:10:20.209Z,19.30
2018-06-01T02:12:47.641Z,19.30
2018-06-01T02:15:15.846Z,19.30
2018-06-01T02:17:43.276Z,19.30
2018-06-01T02:20:11.491Z,19.30
2018-06-01T02:22:38.921Z,19.20
2018-06-01T02:25:06.364Z,19.30
2018-06-01T02:27:34.575Z,19.30
2018-06-01T02:30:02.017Z,19.20
2018-06-01T02:32:29.469Z,19.30
2018-06-01T02:34:56.917Z,19.20
2018-06-01T02:37:24.412Z,19.10
2018-06-01T02:39:51.853Z,19.20
2018-06-01T02:42:19.319Z,19.20
2018-06-01T02:44:46.777Z,19.10
2018-06-01T02:47:14.224Z,19.10
2018-06-01T02:49:41.783Z,19.10
2018-06-01T02:52:09.195Z,19.00
2018-06-01T02:54:37.412Z,19.00
2018-06-01T02:57:04.848Z,19.00
2018-06-01T02:59:32.310Z,19.00
2018-06-01T03:01:59.731Z,19.00
2018-06-01T03:04:27.970Z,19.00
2018-06-01T03:07:10.681Z,19.00
2018-06-01T03:09:38.122Z,19.10
2018-06-01T03:12:05.576Z,19.00
2018-06-01T03:14:33.017Z,19.00
2018-06-01T03:17:00.465Z,19.00
2018-06-01T03:19:27.900Z,19.00
2018-06-01T03:21:56.117Z,19.00
2018-06-01T03:24:23.562Z,19.00
2018-06-01T03:26:50.988Z,19.00
2018-06-01T03:29:19.192Z,18.90
2018-06-01T03:31:46.652Z,18.90
2018-06-01T03:34:14.097Z,19.00
2018-06-01T03:36:41.524Z,19.10
2018-06-01T03:39:09.734Z,19.00
2018-06-01T03:41:37.168Z,18.90
2018-06-01T03:44:05.385Z,19.00
2018-06-01T03:46:32.825Z,19.00
2018-06-01T03:49:00.261Z,19.00
2018-06-01T03:51:27.697Z,19.00
2018-06-01T03:53:55.901Z,19.10
2018-06-01T03:56:23.383Z,19.00
2018-06-01T03:58:50.820Z,19.10
2018-06-01T04:01:18.252Z,19.10
2018-06-01T04:03:45.696Z,19.20
2018-06-01T04:06:13.129Z,19.20
2018-06-01T04:08:40.565Z,19.20
2018-06-01T04:11:08.015Z,19.20
2018-06-01T04:13:35.437Z,19.30
2018-06-01T04:16:02.894Z,19.30
2018-06-01T04:18:31.112Z,19.50
2018-06-01T04:20:58.649Z,19.40
2018-06-01T04:23:26.076Z,19.50
2018-06-01T04:25:54.333Z,19.40
2018-06-01T04:28:21.790Z,19.40
2018-06-01T04:30:49.236Z,19.40
2018-06-01T04:33:16.671Z,19.40
2018-06-01T04:35:44.207Z,19.40
2018-06-01T04:38:11.624Z,19.50
2018-06-01T04:40:39.838Z,19.70
2018-06-01T04:43:07.269Z,19.70
2018-06-01T04:45:35.460Z,19.90
2018-06-01T04:48:02.885Z,19.80
2018-06-01T04:50:31.094Z,20.00
2018-06-01T04:52:58.524Z,20.00
2018-06-01T04:55:26.725Z,20.20
2018-06-01T04:57:54.149Z,20.20
2018-06-01T05:00:22.364Z,20.30
2018-06-01T05:02:49.832Z,20.20
2018-06-01T05:05:17.272Z,20.30
2018-06-01T05:07:44.700Z,20.40
2018-06-01T05:10:12.161Z,20.40
2018-06-01T05:12:39.589Z,20.40
2018-06-01T05:15:07.094Z,20.40
2018-06-01T05:17:34.550Z,20.40
2018-06-01T05:20:01.994Z,20.50
2018-06-01T05:22:29.465Z,20.60
2018-06-01T05:24:56.901Z,20.60
2018-06-01T05:27:24.336Z,20.50
2018-06-01T05:29:52.549Z,20.60
2018-06-01T05:32:20.109Z,20.50
2018-06-01T05:34:47.539Z,20.60
2018-06-01T05:37:15.840Z,20.60
2018-06-01T05:39:43.336Z,20.50
2018-06-01T05:42:10.761Z,20.70
2018-06-01T05:44:38.188Z,20.70
2018-06-01T05:47:05.641Z,20.80
2018-06-01T05:49:33.834Z,20.80
2018-06-01T05:52:01.334Z,20.80
2018-06-01T05:54:28.846Z,20.90
2018-06-01T05:56:56.214Z,21.10
2018-06-01T05:59:23.700Z,21.20
2018-06-01T06:01:51.128Z,21.40
2018-06-01T06:04:18.576Z,21.40
2018-06-01T06:06:46.033Z,21.40
2018-06-01T06:09:13.469Z,21.40
2018-06-01T06:11:41.680Z,21.60
2018-06-01T06:14:09.128Z,21.60
2018-06-01T06:16:36.678Z,21.70
2018-06-01T06:19:04.101Z,21.80
2018-06-01T06:21:32.410Z,21.90
2018-06-01T06:23:59.866Z,21.90
2018-06-01T06:26:27.322Z,22.00
2018-06-01T06:28:54.801Z,22.10
2018-06-01T06:31:22.309Z,22.20
2018-06-01T06:33:49.720Z,22.30
2018-06-01T06:36:17.187Z,22.30
2018-06-01T06:38:44.745Z,22.30
2018-06-01T06:41:12.185Z,22.30
2018-06-01T06:43:39.640Z,22.40
2018-06-01T06:46:07.097Z,22.50
2018-06-01T06:48:34.561Z,22.50
2018-06-01T06:51:02.096Z,22.50
2018-06-01T06:53:29.561Z,22.50
2018-06-01T06:55:57.005Z,22.50
2018-06-01T06:58:24.541Z,22.60
2018-06-01T07:00:52.753Z,22.80
2018-06-01T07:03:20.299Z,22.80
2018-06-01T07:05:47.750Z,22.90
2018-06-01T07:08:15.212Z,23.20
2018-06-01T07:10:42.645Z,23.10
2018-06-01T07:13:10.846Z,23.30
2018-06-01T07:15:38.310Z,23.30
2018-06-01T07:18:05.745Z,23.30
2018-06-01T07:20:33.172Z,23.50
2018-06-01T07:23:02.224Z,23.60
2018-06-01T07:25:29.682Z,23.50
2018-06-01T07:27:57.236Z,23.60
2018-06-01T07:30:24.674Z,23.80
2018-06-01T07:32:52.291Z,23.80
2018-06-01T07:35:19.736Z,23.80
2018-06-01T07:37:47.173Z,23.90
2018-06-01T07:40:14.676Z,23.90
2018-06-01T07:42:42.869Z,24.00
2018-06-01T07:45:10.316Z,24.00
2018-06-01T07:47:37.752Z,24.10
2018-06-01T07:50:06.068Z,24.40
2018-06-01T07:52:33.499Z,24.40
2018-06-01T07:55:00.937Z,24.50
2018-06-01T07:57:28.409Z,24.70
2018-06-01T07:59:56.856Z,24.70
2018-06-01T08:02:24.252Z,24.70
2018-06-01T08:04:51.692Z,24.80
2018-06-01T08:07:19.913Z,24.90
2018-06-01T08:09:47.340Z,24.90
2018-06-01T08:12:14.852Z,24.90
2018-06-01T08:14:42.438Z,25.10
2018-06-01T08:17:09.837Z,25.20
2018-06-01T08:19:37.389Z,25.40
2018-06-01T08:22:04.832Z,25.40
2018-06-01T08:24:32.301Z,25.60
2018-06-01T08:26:59.744Z,25.70
2018-06-01T08:29:27.971Z,25.70
2018-06-01T08:31:55.492Z,25.60
2018-06-01T08:34:22.923Z,25.70
2018-06-01T08:36:51.174Z,25.80
2018-06-01T08:39:23.447Z,25.90
2018-06-01T08:41:50.874Z,26.00
2018-06-01T08:44:18.296Z,26.10
2018-06-01T08:46:45.797Z,26.20
2018-06-01T08:49:13.172Z,26.40
2018-06-01T08:51:41.465Z,26.40
2018-06-01T08:54:09.669Z,26.60
2018-06-01T08:56:37.117Z,26.50
2018-06-01T08:59:04.610Z,26.80
2018-06-01T09:01:32.035Z,27.00
2018-06-01T09:03:59.518Z,27.10
2018-06-01T09:06:27.021Z,27.10
2018-06-01T09:08:55.438Z,27.10
2018-06-01T09:11:22.991Z,27.10
2018-06-01T09:13:50.430Z,27.10
2018-06-01T09:16:17.989Z,27.20
2018-06-01T09:18:45.661Z,27.30
2018-06-01T09:21:13.118Z,27.30
2018-06-01T09:23:40.566Z,27.30
2018-06-01T09:26:08.059Z,27.40
2018-06-01T09:28:35.511Z,27.40
2018-06-01T09:31:02.952Z,27.40
2018-06-01T09:33:30.409Z,27.40
2018-06-01T09:35:57.864Z,27.40
2018-06-01T09:38:25.304Z,27.50
2018-06-01T09:40:52.785Z,27.60
2018-06-01T09:43:20.264Z,27.60
2018-06-01T09:45:47.733Z,27.60
2018-06-01T09:48:15.962Z,27.60
2018-06-01T09:50:43.421Z,27.60
2018-06-01T09:53:10.860Z,27.70
2018-06-01T09:55:38.311Z,27.80
2018-06-01T09:58:06.606Z,27.70
2018-06-01T10:00:39.884Z,27.60
2018-06-01T10:03:07.341Z,27.70
2018-06-01T10:05:34.773Z,27.70
2018-06-01T10:08:03.019Z,28.00
2018-06-01T10:10:36.429Z,28.00
2018-06-01T10:13:03.964Z,28.20
2018-06-01T10:15:31.439Z,28.30
2018-06-01T10:17:58.887Z,28.40
2018-06-01T10:20:26.320Z,28.40
2018-06-01T10:22:53.783Z,28.50
2018-06-01T10:25:21.339Z,28.50
2018-06-01T10:27:48.779Z,28.50
2018-06-01T10:30:16.216Z,28.60
2018-06-01T10:32:43.721Z,28.60
2018-06-01T10:35:11.321Z,28.50
2018-06-01T10:37:38.776Z,28.60
2018-06-01T10:40:06.987Z,28.70
2018-06-01T10:42:34.468Z,28.60
2018-06-01T10:45:01.933Z,28.70
2018-06-01T10:47:29.389Z,28.70
2018-06-01T10:49:56.822Z,28.70
2018-06-01T10:52:24.293Z,28.70
2018-06-01T10:54:52.317Z,28.90
2018-06-01T10:57:19.793Z,29.10
2018-06-01T10:59:47.237Z,29.20
2018-06-01T11:02:14.676Z,29.30
2018-06-01T11:04:42.916Z,29.30
2018-06-01T11:07:10.357Z,29.30
2018-06-01T11:09:37.906Z,29.30
2018-06-01T11:12:05.347Z,29.30
2018-06-01T11:14:32.873Z,29.50
2018-06-01T11:17:01.008Z,29.70
2018-06-01T11:19:28.472Z,29.60
2018-06-01T11:21:55.939Z,29.70
2018-06-01T11:24:23.493Z,29.60
2018-06-01T11:26:50.954Z,29.70
2018-06-01T11:29:18.397Z,29.70
2018-06-01T11:31:45.862Z,29.80
2018-06-01T11:34:13.294Z,30.00
2018-06-01T11:36:40.728Z,30.10
2018-06-01T11:39:08.157Z,30.20
2018-06-01T11:41:36.368Z,30.40
2018-06-01T11:44:03.847Z,30.40
2018-06-01T11:46:31.390Z,30.50
2018-06-01T11:48:58.877Z,30.70
2018-06-01T11:51:26.322Z,30.90
2018-06-01T11:53:53.750Z,30.90
2018-06-01T11:56:21.234Z,30.90
2018-06-01T11:58:48.704Z,30.80
2018-06-01T12:01:16.148Z,30.60
2018-06-01T12:03:43.613Z,30.60
2018-06-01T12:06:11.053Z,30.60
2018-06-01T12:08:38.489Z,30.60
2018-06-01T12:11:05.959Z,30.60
2018-06-01T12:13:33.516Z,30.70
2018-06-01T12:16:00.937Z,30.70
2018-06-01T12:18:28.410Z,30.80
2018-06-01T12:20:55.849Z,30.90
2018-06-01T12:23:24.089Z,30.80
2018-06-01T12:25:52.364Z,30.70
2018-06-01T12:28:19.809Z,30.90
2018-06-01T12:30:48.138Z,31.00
2018-06-01T12:33:16.427Z,31.20
2018-06-01T12:35:43.879Z,31.20
2018-06-01T12:38:11.362Z,31.20
2018-06-01T12:40:38.825Z,31.20
2018-06-01T12:43:06.262Z,31.20
2018-06-01T12:45:33.744Z,31.10
2018-06-01T12:48:01.198Z,31.10
2018-06-01T12:50:28.652Z,31.10
2018-06-01T12:52:56.098Z,31.10
2018-06-01T12:55:23.565Z,31.10
2018-06-01T12:57:50.997Z,31.10
2018-06-01T13:00:18.447Z,31.20
2018-06-01T13:02:45.947Z,31.10
2018-06-01T13:05:13.397Z,31.30
2018-06-01T13:07:40.856Z,31.10
2018-06-01T13:10:08.302Z,31.10
2018-06-01T13:12:35.848Z,31.10
2018-06-01T13:15:03.339Z,31.10
2018-06-01T13:17:30.786Z,31.10
2018-06-01T13:19:58.228Z,31.10
2018-06-01T13:22:25.688Z,31.20
2018-06-01T13:24:53.143Z,31.30
2018-06-01T13:27:20.581Z,31.30
2018-06-01T13:29:48.077Z,31.40
2018-06-01T13:32:15.521Z,31.50
2018-06-01T13:34:42.982Z,31.70
2018-06-01T13:37:10.417Z,31.80
2018-06-01T13:39:37.877Z,31.70
2018-06-01T13:42:05.353Z,31.70
2018-06-01T13:44:32.857Z,31.80
2018-06-01T13:47:01.070Z,32.30
2018-06-01T13:49:28.556Z,32.30
2018-06-01T13:51:55.996Z,32.30
2018-06-01T13:54:23.468Z,32.20
2018-06-01T13:56:50.933Z,32.30
2018-06-01T13:59:18.369Z,32.30
2018-06-01T14:01:45.910Z,32.30
2018-06-01T14:04:13.350Z,32.50
2018-06-01T14:06:40.814Z,32.40
2018-06-01T14:09:08.275Z,32.50
2018-06-01T14:11:35.756Z,32.30
2018-06-01T14:14:03.210Z,32.30
2018-06-01T14:16:30.643Z,32.20
2018-06-01T14:18:58.088Z,31.60
2018-06-01T14:21:25.522Z,32.20
2018-06-01T14:23:53.733Z,32.30
2018-06-01T14:26:21.169Z,32.20
2018-06-01T14:28:48.648Z,32.40
2018-06-01T14:31:16.064Z,32.60
2018-06-01T14:33:44.284Z,32.40
2018-06-01T14:36:11.764Z,32.40
2018-06-01T14:38:39.217Z,32.40
2018-06-01T14:41:07.635Z,32.50
2018-06-01T14:43:35.943Z,32.10
2018-06-01T14:46:03.525Z,32.10
2018-06-01T14:48:31.163Z,32.10
2018-06-01T14:50:58.726Z,32.10
2018-06-01T14:53:26.181Z,31.90
2018-06-01T14:55:53.742Z,31.90
2018-06-01T14:58:21.217Z,31.90
2018-06-01T15:00:48.675Z,31.80
2018-06-01T15:03:16.924Z,31.60
2018-06-01T15:05:44.352Z,31.60
2018-06-01T15:08:11.986Z,31.40
2018-06-01T15:10:39.419Z,31.20
2018-06-01T15:13:06.954Z,31.00
2018-06-01T15:15:34.398Z,30.90
2018-06-01T15:18:01.920Z,30.80
2018-06-01T15:20:29.425Z,30.80
2018-06-01T15:22:56.843Z,30.70
2018-06-01T15:25:25.158Z,30.40
2018-06-01T15:27:52.599Z,30.30
2018-06-01T15:30:20.028Z,30.20
2018-06-01T15:32:48.248Z,30.10
2018-06-01T15:35:15.680Z,30.10
2018-06-01T15:37:43.159Z,30.10
2018-06-01T15:40:10.636Z,30.20
2018-06-01T15:42:38.092Z,30.10
2018-06-01T15:45:05.721Z,30.00
2018-06-01T15:47:33.166Z,29.80
2018-06-01T15:50:01.436Z,29.60
2018-06-01T15:52:29.651Z,29.60
2018-06-01T15:54:57.076Z,29.60
2018-06-01T15:57:24.554Z,29.70
2018-06-01T15:59:52.110Z,29.70
2018-06-01T16:02:19.540Z,29.60
2018-06-01T16:04:47.169Z,29.50
2018-06-01T16:07:14.616Z,29.50
2018-06-01T16:09:42.141Z,29.50
2018-06-01T16:12:09.584Z,29.50
2018-06-01T16:14:37.044Z,29.50
2018-06-01T16:17:04.488Z,30.50
2018-06-01T16:19:31.949Z,29.50
2018-06-01T16:21:59.403Z,29.40
2018-06-01T16:24:26.865Z,29.20
2018-06-01T16:26:55.072Z,29.00
2018-06-01T16:29:22.540Z,28.90
2018-06-01T16:31:50.723Z,28.90
2018-06-01T16:34:18.264Z,28.80
2018-06-01T16:36:45.733Z,28.70
2018-06-01T16:39:13.216Z,28.40
2018-06-01T16:41:41.425Z,27.90
2018-06-01T16:44:08.980Z,27.80
2018-06-01T16:46:36.424Z,27.40
2018-06-01T16:49:03.901Z,27.00
2018-06-01T16:51:31.366Z,26.40
2018-06-01T16:53:58.821Z,26.20
2018-06-01T16:56:26.266Z,26.10
2018-06-01T16:58:53.831Z,25.90
2018-06-01T17:01:21.269Z,25.80
2018-06-01T17:03:49.162Z,25.60
2018-06-01T17:06:16.608Z,25.60
2018-06-01T17:08:44.115Z,25.50
2018-06-01T17:11:12.345Z,25.40
2018-06-01T17:13:39.810Z,25.40
2018-06-01T17:16:07.244Z,25.30
2018-06-01T17:18:34.737Z,25.20
2018-06-01T17:21:02.221Z,25.00
2018-06-01T17:23:30.453Z,24.90
2018-06-01T17:25:57.920Z,24.80
2018-06-01T17:28:25.404Z,24.90
2018-06-01T17:30:53.027Z,24.80
2018-06-01T17:33:20.494Z,24.80
2018-06-01T17:35:47.933Z,24.70
2018-06-01T17:38:16.477Z,23.20
2018-06-01T17:40:44.717Z,24.00
2018-06-01T17:43:12.187Z,24.00
2018-06-01T17:45:40.530Z,23.80
2018-06-01T17:48:07.990Z,23.70
2018-06-01T17:50:35.519Z,23.60
2018-06-01T17:53:02.998Z,23.70
2018-06-01T17:55:30.471Z,23.80
2018-06-01T17:57:57.966Z,23.80
2018-06-01T18:00:25.604Z,23.70
2018-06-01T18:02:53.102Z,23.60
2018-06-01T18:05:21.333Z,23.60
2018-06-01T18:07:48.811Z,23.50
2018-06-01T18:10:17.022Z,23.50
2018-06-01T18:12:44.496Z,23.40
2018-06-01T18:15:12.025Z,23.40
2018-06-01T18:17:40.302Z,23.30
2018-06-01T18:20:08.506Z,23.40
2018-06-01T18:22:36.035Z,23.30
2018-06-01T18:25:03.392Z,23.40
2018-06-01T18:27:30.837Z,23.50
2018-06-01T18:29:59.047Z,23.50
2018-06-01T18:32:26.547Z,23.50
2018-06-01T18:34:54.021Z,23.60
2018-06-01T18:37:22.257Z,23.30
2018-06-01T18:39:49.680Z,23.20
2018-06-01T18:42:17.148Z,23.30
2018-06-01T18:44:44.579Z,23.40
2018-06-01T18:47:12.037Z,23.40
2018-06-01T18:49:40.247Z,23.40
2018-06-01T18:52:07.792Z,23.40
2018-06-01T18:54:35.241Z,23.30
2018-06-01T18:57:02.691Z,23.10
2018-06-01T18:59:30.157Z,23.00
2018-06-01T19:01:58.528Z,22.90
2018-06-01T19:04:25.993Z,22.80
2018-06-01T19:06:53.425Z,22.70
2018-06-01T19:09:21.629Z,22.60
2018-06-01T19:11:49.072Z,22.50
2018-06-01T19:14:16.532Z,22.30
2018-06-01T19:16:44.096Z,22.10
2018-06-01T19:19:11.519Z,22.00
2018-06-01T19:21:39.754Z,22.00
2018-06-01T19:24:07.177Z,21.90
2018-06-01T19:26:34.636Z,22.10
2018-06-01T19:29:02.131Z,22.10
2018-06-01T19:31:29.532Z,22.20
2018-06-01T19:33:57.064Z,22.10
2018-06-01T19:36:24.543Z,22.00
2018-06-01T19:38:52.770Z,21.70
2018-06-01T19:41:20.213Z,21.60
2018-06-01T19:43:47.640Z,21.50
2018-06-01T19:46:15.085Z,21.40
2018-06-01T19:48:42.538Z,21.40
2018-06-01T19:51:10.750Z,21.30
2018-06-01T19:53:38.241Z,21.20
2018-06-01T19:56:05.688Z,21.20
2018-06-01T19:58:33.178Z,21.10
2018-06-01T20:01:00.648Z,21.10
2018-06-01T20:03:28.233Z,21.10
2018-06-01T20:05:55.661Z,20.90
2018-06-01T20:08:23.131Z,20.70
2018-06-01T20:10:50.570Z,20.50
2018-06-01T20:13:18.880Z,20.40
2018-06-01T20:15:46.349Z,20.30
2018-06-01T20:18:13.835Z,20.30
2018-06-01T20:20:41.284Z,20.30
2018-06-01T20:23:08.750Z,20.20
2018-06-01T20:25:36.193Z,20.10
2018-06-01T20:28:03.667Z,20.10
2018-06-01T20:30:31.090Z,20.00
2018-06-01T20:32:58.628Z,20.10
2018-06-01T20:35:26.187Z,20.10
2018-06-01T20:37:53.628Z,20.30
2018-06-01T20:40:21.206Z,20.30
2018-06-01T20:42:48.646Z,20.40
2018-06-01T20:45:16.154Z,20.50
2018-06-01T20:47:43.691Z,20.60
2018-06-01T20:50:11.133Z,20.60
2018-06-01T20:52:38.590Z,20.70
2018-06-01T20:55:06.031Z,20.90
2018-06-01T20:57:33.531Z,20.90
2018-06-01T21:00:01.029Z,21.00
2018-06-01T21:02:29.249Z,21.10
2018-06-01T21:04:56.813Z,21.00
2018-06-01T21:07:24.257Z,21.20
2018-06-01T21:09:51.712Z,21.40
2018-06-01T21:12:19.170Z,21.40
2018-06-01T21:14:46.624Z,21.60
2018-06-01T21:17:14.081Z,21.50
2018-06-01T21:19:41.538Z,21.50
2018-06-01T21:22:09.011Z,21.60
2018-06-01T21:24:36.476Z,21.60
2018-06-01T21:27:03.942Z,21.40
2018-06-01T21:29:31.445Z,21.30
2018-06-01T21:31:59.641Z,21.40
2018-06-01T21:34:27.197Z,21.40
2018-06-01T21:36:54.625Z,21.50
2018-06-01T21:39:22.063Z,21.50
2018-06-01T21:41:50.269Z,21.50
2018-06-01T21:44:17.777Z,21.50
2018-06-01T21:46:45.225Z,21.60
2018-06-01T21:49:12.689Z,21.60
2018-06-01T21:51:40.207Z,21.60
2018-06-01T21:54:07.643Z,21.70
2018-06-01T21:56:35.107Z,21.70
2018-06-01T21:59:02.554Z,21.50
2018-06-01T22:01:30.013Z,21.50
2018-06-01T22:03:58.237Z,21.40
2018-06-01T22:06:25.693Z,21.40
2018-06-01T22:08:53.156Z,21.40
2018-06-01T22:11:20.623Z,21.40
2018-06-01T22:13:48.061Z,21.50
2018-06-01T22:16:15.522Z,21.50
2018-06-01T22:18:42.990Z,21.40
2018-06-01T22:21:11.967Z,21.40
2018-06-01T22:23:39.432Z,21.40
2018-06-01T22:26:06.902Z,21.50
2018-06-01T22:28:34.353Z,21.60
2018-06-01T22:31:01.817Z,21.70
2018-06-01T22:33:29.356Z,21.60
2018-06-01T22:35:56.792Z,21.50
2018-06-01T22:38:24.234Z,21.50
2018-06-01T22:40:51.730Z,21.60
2018-06-01T22:43:19.162Z,21.60
2018-06-01T22:45:46.598Z,21.70
2018-06-01T22:48:14.036Z,21.90
2018-06-01T22:50:42.241Z,21.50
2018-06-01T22:53:09.701Z,21.40
2018-06-01T22:55:37.146Z,21.40
2018-06-01T22:58:04.601Z,21.40
2018-06-01T23:00:47.642Z,21.50
2018-06-01T23:03:15.102Z,21.60
2018-06-01T23:05:42.555Z,21.70
2018-06-01T23:08:10.009Z,21.60
2018-06-01T23:10:37.450Z,21.60
2018-06-01T23:13:04.914Z,21.70
2018-06-01T23:15:32.370Z,21.80
2018-06-01T23:17:59.827Z,21.90
2018-06-01T23:20:27.257Z,22.00
2018-06-01T23:22:54.697Z,22.00
2018-06-01T23:25:22.902Z,21.90
2018-06-01T23:27:50.344Z,21.90
2018-06-01T23:30:17.790Z,21.70
2018-06-01T23:32:46.103Z,21.60
2018-06-01T23:35:13.558Z,21.60
2018-06-01T23:37:41.014Z,21.50
2018-06-01T23:40:08.720Z,21.50
2018-06-01T23:42:36.158Z,21.40
2018-06-01T23:45:03.610Z,21.40
2018-06-01T23:47:31.053Z,21.50
2018-06-01T23:49:58.500Z,21.50
2018-06-01T23:52:25.963Z,21.50
2018-06-01T23:54:53.396Z,21.60
2018-06-01T23:57:20.841Z,21.40
2018-06-01T23:59:49.049Z,21.60
